createdAt,value
2022-08-12T00:02:02.692Z,100927.23
2022-08-12T00:04:51.972Z,100921.04
2022-08-12T00:07:38.429Z,100920.82
2022-08-12T00:10:24.785Z,100918.65
2022-08-12T00:13:11.649Z,100915.02
2022-08-12T00:15:57.743Z,100916.91
2022-08-12T00:18:44.213Z,100915.04
2022-08-12T00:21:31.727Z,100916.10
2022-08-12T00:24:22.671Z,100914.66
2022-08-12T00:27:09.328Z,100916.91
2022-08-12T00:29:55.679Z,100922.19
2022-08-12T00:32:56.759Z,100920.83
2022-08-12T00:35:44.276Z,100917.40
2022-08-12T00:38:31.794Z,100919.11
2022-08-12T00:41:18.028Z,100922.15
2022-08-12T00:43:46.268Z,100922.20
2022-08-12T00:46:32.144Z,100915.98
2022-08-12T00:48:59.705Z,100919.21
2022-08-12T00:51:47.973Z,100916.60
2022-08-12T00:54:16.831Z,100919.72
2022-08-12T00:56:44.639Z,100919.80
2022-08-12T00:59:12.171Z,100923.14
2022-08-12T01:02:11.524Z,100923.23
2022-08-12T01:04:47.211Z,100925.59
2022-08-12T01:07:34.377Z,100924.30
2022-08-12T01:10:27.492Z,100928.17
2022-08-12T01:13:07.195Z,100926.99
2022-08-12T01:15:46.889Z,100924.84
2022-08-12T01:18:14.520Z,100928.36
2022-08-12T01:20:42.172Z,100929.17
2022-08-12T01:23:28.512Z,100932.02
2022-08-12T01:25:56.621Z,100929.90
2022-08-12T01:28:24.900Z,100924.59
2022-08-12T01:30:52.457Z,100927.60
2022-08-12T01:33:19.992Z,100933.50
2022-08-12T01:36:08.486Z,100928.05
2022-08-12T01:38:36.905Z,100922.73
2022-08-12T01:41:05.061Z,100922.27
2022-08-12T01:43:33.244Z,100923.71
2022-08-12T01:46:06.284Z,100924.40
2022-08-12T01:48:50.175Z,100911.18
2022-08-12T01:52:16.375Z,100902.38
2022-08-12T01:54:19.586Z,100902.98
2022-08-12T01:56:57.082Z,100905.37
2022-08-12T01:59:46.855Z,100906.05
2022-08-12T02:02:19.219Z,100894.92
2022-08-12T02:05:20.591Z,100887.08
2022-08-12T02:08:23.322Z,100887.23
2022-08-12T02:11:18.691Z,100882.81
2022-08-12T02:14:00.190Z,100874.30
2022-08-12T02:16:45.355Z,100873.20
2022-08-12T02:19:31.511Z,100869.59
2022-08-12T02:22:17.536Z,100884.02
2022-08-12T02:24:45.902Z,100885.80
2022-08-12T02:27:13.801Z,100883.04
2022-08-12T02:29:41.435Z,100882.66
2022-08-12T02:32:09.176Z,100868.65
2022-08-12T02:34:37.852Z,100865.27
2022-08-12T02:37:05.489Z,100882.52
2022-08-12T02:39:36.187Z,100887.38
2022-08-12T02:42:06.721Z,100877.20
2022-08-12T02:44:36.367Z,100864.56
2022-08-12T02:47:06.316Z,100866.66
2022-08-12T02:49:39.940Z,100868.21
2022-08-12T02:52:10.427Z,100873.57
2022-08-12T02:54:37.950Z,100872.57
2022-08-12T02:57:06.333Z,100863.84
2022-08-12T02:59:35.446Z,100860.33
2022-08-12T03:02:04.301Z,100861.00
2022-08-12T03:04:40.203Z,100867.52
2022-08-12T03:07:15.846Z,100871.55
2022-08-12T03:10:04.649Z,100871.69
2022-08-12T03:12:36.021Z,100880.39
2022-08-12T03:15:18.157Z,100882.84
2022-08-12T03:18:24.868Z,100886.21
2022-08-12T03:20:42.904Z,100885.58
2022-08-12T03:23:21.576Z,100889.79
2022-08-12T03:25:58.830Z,100894.52
2022-08-12T03:28:45.571Z,100893.73
2022-08-12T03:31:13.171Z,100910.08
2022-08-12T03:33:43.771Z,100905.41
2022-08-12T03:36:20.825Z,100905.34
2022-08-12T03:39:08.925Z,100902.15
2022-08-12T03:41:36.658Z,100898.13
2022-08-12T03:44:41.535Z,100900.91
2022-08-12T03:47:35.018Z,100907.90
2022-08-12T03:50:21.521Z,100904.98
2022-08-12T03:53:08.937Z,100902.92
2022-08-12T03:55:55.377Z,100905.35
2022-08-12T03:58:42.119Z,100904.44
2022-08-12T04:01:09.808Z,100912.15
2022-08-12T04:03:52.919Z,100919.55
2022-08-12T04:06:35.556Z,100924.77
2022-08-12T04:09:15.824Z,100931.27
2022-08-12T04:12:03.466Z,100930.45
2022-08-12T04:14:31.801Z,100925.59
2022-08-12T04:16:59.406Z,100924.14
2022-08-12T04:19:28.177Z,100921.23
2022-08-12T04:22:02.071Z,100924.54
2022-08-12T04:24:35.524Z,100925.38
2022-08-12T04:27:08.469Z,100930.09
2022-08-12T04:30:17.221Z,100933.16
2022-08-12T04:32:25.337Z,100934.60
2022-08-12T04:34:53.149Z,100934.99
2022-08-12T04:37:20.773Z,100939.55
2022-08-12T04:39:48.659Z,100939.90
2022-08-12T04:42:16.400Z,100942.51
2022-08-12T04:44:45.195Z,100935.71
2022-08-12T04:47:13.360Z,100937.27
2022-08-12T04:49:41.325Z,100934.20
2022-08-12T04:52:09.518Z,100927.90
2022-08-12T04:54:37.825Z,100925.86
2022-08-12T04:57:06.032Z,100921.91
2022-08-12T04:59:46.690Z,100922.45
2022-08-12T05:02:16.891Z,100918.79
2022-08-12T05:04:48.970Z,100917.68
2022-08-12T05:07:17.372Z,100921.27
2022-08-12T05:10:00.160Z,100920.08
2022-08-12T05:12:39.132Z,100927.22
2022-08-12T05:15:19.097Z,100930.69
2022-08-12T05:17:56.089Z,100935.64
2022-08-12T05:20:26.090Z,100936.91
2022-08-12T05:23:12.233Z,100937.58
2022-08-12T05:25:43.239Z,100934.33
2022-08-12T05:28:13.100Z,100933.54
2022-08-12T05:30:42.527Z,100934.88
2022-08-12T05:33:11.166Z,100931.67
2022-08-12T05:35:40.188Z,100930.05
2022-08-12T05:38:26.610Z,100932.10
2022-08-12T05:40:55.010Z,100921.96
2022-08-12T05:43:22.805Z,100927.27
2022-08-12T05:45:50.417Z,100925.52
2022-08-12T05:48:18.406Z,100927.34
2022-08-12T05:50:46.144Z,100923.59
2022-08-12T05:53:13.787Z,100920.20
2022-08-12T05:55:42.153Z,100919.13
2022-08-12T05:58:09.945Z,100919.10
2022-08-12T06:00:38.021Z,100918.39
2022-08-12T06:03:06.246Z,100916.92
2022-08-12T06:05:51.798Z,100920.89
2022-08-12T06:08:24.209Z,100922.52
2022-08-12T06:10:52.096Z,100918.66
2022-08-12T06:13:28.222Z,100919.41
2022-08-12T06:16:07.696Z,100914.20
2022-08-12T06:18:35.392Z,100916.38
2022-08-12T06:21:03.001Z,100913.94
2022-08-12T06:23:31.414Z,100913.06
2022-08-12T06:25:59.102Z,100913.68
2022-08-12T06:28:28.074Z,100912.67
2022-08-12T06:31:24.199Z,100918.09
2022-08-12T06:33:56.001Z,100921.70
2022-08-12T06:36:30.010Z,100923.09
2022-08-12T06:39:01.236Z,100922.91
2022-08-12T06:42:02.631Z,100923.09
2022-08-12T06:44:35.106Z,100923.95
2022-08-12T06:47:02.667Z,100924.97
2022-08-12T06:49:34.723Z,100926.05
2022-08-12T06:52:04.466Z,100927.71
2022-08-12T06:54:33.231Z,100924.98
2022-08-12T06:57:57.382Z,100925.24
2022-08-12T06:59:48.524Z,100923.55
2022-08-12T07:02:16.071Z,100923.98
2022-08-12T07:04:43.647Z,100921.23
2022-08-12T07:07:12.536Z,100920.72
2022-08-12T07:10:04.464Z,100928.56
2022-08-12T07:12:28.576Z,100929.36
2022-08-12T07:14:57.461Z,100927.80
2022-08-12T07:17:25.796Z,100925.01
2022-08-12T07:19:53.848Z,100924.73
2022-08-12T07:22:23.291Z,100921.52
2022-08-12T07:25:11.020Z,100924.26
2022-08-12T07:27:40.577Z,100920.58
2022-08-12T07:30:10.133Z,100922.76
2022-08-12T07:32:37.813Z,100926.58
2022-08-12T07:35:05.650Z,100923.08
2022-08-12T07:37:33.603Z,100917.33
2022-08-12T07:40:01.509Z,100919.21
2022-08-12T07:42:29.531Z,100920.77
2022-08-12T07:44:57.427Z,100920.84
2022-08-12T07:47:26.894Z,100922.66
2022-08-12T07:50:04.616Z,100926.16
2022-08-12T07:52:38.436Z,100926.16
2022-08-12T07:55:06.790Z,100922.25
2022-08-12T07:57:34.882Z,100924.45
2022-08-12T08:00:05.298Z,100922.65
2022-08-12T08:02:36.369Z,100916.52
2022-08-12T08:05:04.515Z,100913.17
2022-08-12T08:07:32.479Z,100912.27
2022-08-12T08:10:00.655Z,100921.42
2022-08-12T08:12:47.373Z,100916.73
2022-08-12T08:15:15.876Z,100915.27
2022-08-12T08:17:59.662Z,100916.83
2022-08-12T08:20:30.514Z,100914.74
2022-08-12T08:22:58.484Z,100915.04
2022-08-12T08:25:36.199Z,100918.48
2022-08-12T08:28:09.287Z,100923.13
2022-08-12T08:30:39.057Z,100930.71
2022-08-12T08:33:20.120Z,100930.82
2022-08-12T08:35:56.835Z,100932.87
2022-08-12T08:38:32.816Z,100933.04
2022-08-12T08:42:19.374Z,100932.57
2022-08-12T08:44:11.812Z,100932.47
2022-08-12T08:46:40.162Z,100932.20
2022-08-12T08:49:08.515Z,100935.39
2022-08-12T08:51:36.702Z,100933.39
2022-08-12T08:54:04.885Z,100938.49
2022-08-12T08:56:33.120Z,100932.14
2022-08-12T08:59:00.699Z,100931.13
2022-08-12T09:01:37.265Z,100931.15
2022-08-12T09:05:08.524Z,100923.36
2022-08-12T09:07:17.130Z,100920.94
2022-08-12T09:10:02.015Z,100917.23
2022-08-12T09:12:54.414Z,100919.73
2022-08-12T09:15:35.410Z,100918.23
2022-08-12T09:18:08.886Z,100920.38
2022-08-12T09:20:38.281Z,100919.40
2022-08-12T09:23:57.206Z,100916.08
2022-08-12T09:25:55.443Z,100921.96
2022-08-12T09:28:30.878Z,100918.39
2022-08-12T09:30:59.859Z,100918.28
2022-08-12T09:34:29.259Z,100917.25
2022-08-12T09:36:30.949Z,100928.77
2022-08-12T09:40:01.497Z,100917.54
2022-08-12T09:42:39.582Z,100919.29
2022-08-12T09:45:23.497Z,100917.64
2022-08-12T09:47:59.285Z,100913.63
2022-08-12T09:50:28.180Z,100911.10
2022-08-12T09:53:15.003Z,100910.04
2022-08-12T09:56:06.990Z,100908.32
2022-08-12T09:58:59.156Z,100906.11
2022-08-12T10:01:35.128Z,100904.17
2022-08-12T10:04:19.187Z,100902.63
2022-08-12T10:06:53.779Z,100896.91
2022-08-12T10:09:28.577Z,100895.37
2022-08-12T10:12:33.469Z,100895.61
2022-08-12T10:15:01.924Z,100899.06
2022-08-12T10:17:29.985Z,100897.83
2022-08-12T10:19:59.617Z,100895.85
2022-08-12T10:22:39.007Z,100892.81
2022-08-12T10:26:35.212Z,100888.67
2022-08-12T10:28:35.765Z,100885.39
2022-08-12T10:31:05.301Z,100885.05
2022-08-12T10:33:55.642Z,100884.61
2022-08-12T10:36:36.135Z,100881.36
2022-08-12T10:40:02.008Z,100882.02
2022-08-12T10:42:15.994Z,100872.34
2022-08-12T10:44:51.455Z,100868.69
2022-08-12T10:47:26.628Z,100870.05
2022-08-12T10:50:28.126Z,100876.45
2022-08-12T10:52:57.449Z,100875.72
2022-08-12T10:55:26.074Z,100872.20
2022-08-12T10:58:15.211Z,100870.04
2022-08-12T11:00:45.321Z,100870.27
2022-08-12T11:04:23.172Z,100869.95
2022-08-12T11:07:02.992Z,100875.16
2022-08-12T11:08:58.875Z,100868.52
2022-08-12T11:12:35.968Z,100869.66
2022-08-12T11:14:49.763Z,100873.23
2022-08-12T11:17:42.771Z,100874.09
2022-08-12T11:19:54.830Z,100874.41
2022-08-12T11:22:24.239Z,100870.00
2022-08-12T11:24:53.712Z,100870.98
2022-08-12T11:27:23.052Z,100869.81
2022-08-12T11:30:02.032Z,100866.19
2022-08-12T11:32:38.414Z,100867.25
2022-08-12T11:35:08.804Z,100864.52
2022-08-12T11:37:58.777Z,100863.69
2022-08-12T11:40:28.527Z,100857.40
2022-08-12T11:43:01.877Z,100857.13
2022-08-12T11:45:47.213Z,100856.20
2022-08-12T11:48:15.733Z,100855.89
2022-08-12T11:50:43.815Z,100849.46
2022-08-12T11:53:57.544Z,100848.79
2022-08-12T11:55:59.584Z,100848.36
2022-08-12T11:59:44.427Z,100851.40
2022-08-12T12:02:01.463Z,100855.25
2022-08-12T12:04:02.593Z,100853.92
2022-08-12T12:06:31.475Z,100853.50
2022-08-12T12:09:00.596Z,100854.19
2022-08-12T12:11:28.250Z,100852.73
2022-08-12T12:14:15.861Z,100847.73
2022-08-12T12:16:48.188Z,100847.20
2022-08-12T12:19:19.056Z,100842.47
2022-08-12T12:21:49.335Z,100838.70
2022-08-12T12:24:22.078Z,100833.65
2022-08-12T12:26:59.595Z,100840.43
2022-08-12T12:30:19.470Z,100840.40
2022-08-12T12:32:15.410Z,100839.66
2022-08-12T12:35:17.852Z,100841.76
2022-08-12T12:38:03.484Z,100844.37
2022-08-12T12:40:19.295Z,100840.55
2022-08-12T12:42:57.713Z,100834.94
2022-08-12T12:45:33.191Z,100838.09
2022-08-12T12:48:05.157Z,100833.12
2022-08-12T12:50:35.735Z,100827.35
2022-08-12T12:53:10.283Z,100823.37
2022-08-12T12:55:57.966Z,100823.58
2022-08-12T12:58:26.712Z,100821.58
2022-08-12T13:00:57.614Z,100824.02
2022-08-12T13:03:25.644Z,100827.05
2022-08-12T13:06:00.505Z,100823.18
2022-08-12T13:08:35.948Z,100823.14
2022-08-12T13:11:04.889Z,100820.27
2022-08-12T13:14:08.994Z,100824.55
2022-08-12T13:16:21.614Z,100821.99
2022-08-12T13:18:49.555Z,100818.64
2022-08-12T13:21:32.932Z,100812.73
2022-08-12T13:24:10.380Z,100813.64
2022-08-12T13:26:40.356Z,100811.66
2022-08-12T13:29:11.301Z,100806.62
2022-08-12T13:32:13.459Z,100804.89
2022-08-12T13:34:34.786Z,100799.79
2022-08-12T13:37:09.887Z,100789.42
2022-08-12T13:39:39.130Z,100788.19
2022-08-12T13:42:14.371Z,100786.45
2022-08-12T13:44:42.764Z,100785.30
2022-08-12T13:47:19.695Z,100786.39
2022-08-12T13:49:54.817Z,100787.38
2022-08-12T13:52:23.888Z,100797.69
2022-08-12T13:54:56.135Z,100799.04
2022-08-12T13:57:26.524Z,100795.48
2022-08-12T13:59:55.363Z,100792.74
2022-08-12T14:02:24.375Z,100788.94
2022-08-12T14:04:56.440Z,100783.88
2022-08-12T14:07:25.849Z,100784.21
2022-08-12T14:10:16.040Z,100784.48
2022-08-12T14:12:53.997Z,100779.58
2022-08-12T14:15:36.996Z,100773.20
2022-08-12T14:18:13.151Z,100770.58
2022-08-12T14:20:41.964Z,100781.26
2022-08-12T14:24:02.051Z,100783.92
2022-08-12T14:26:00.708Z,100786.13
2022-08-12T14:28:31.198Z,100782.11
2022-08-12T14:31:01.232Z,100781.31
2022-08-12T14:33:44.375Z,100782.65
2022-08-12T14:36:12.838Z,100780.14
2022-08-12T14:38:41.766Z,100779.91
2022-08-12T14:41:19.066Z,100773.61
2022-08-12T14:44:04.521Z,100776.36
2022-08-12T14:46:35.743Z,100770.23
2022-08-12T14:49:27.572Z,100767.38
2022-08-12T14:52:55.965Z,100770.86
2022-08-12T14:56:59.753Z,100766.54
2022-08-12T14:57:33.666Z,100760.48
2022-08-12T15:00:23.061Z,100757.92
2022-08-12T15:02:54.248Z,100760.04
2022-08-12T15:06:00.779Z,100761.41
2022-08-12T15:08:13.702Z,100761.52
2022-08-12T15:10:49.895Z,100766.72
2022-08-12T15:13:23.298Z,100768.08
2022-08-12T15:15:52.688Z,100763.61
2022-08-12T15:18:22.722Z,100761.63
2022-08-12T15:20:54.495Z,100764.06
2022-08-12T15:23:23.670Z,100764.48
2022-08-12T15:26:02.769Z,100759.80
2022-08-12T15:28:32.607Z,100760.81
2022-08-12T15:31:00.943Z,100765.83
2022-08-12T15:33:44.913Z,100771.54
2022-08-12T15:36:14.338Z,100775.17
2022-08-12T15:38:46.862Z,100779.73
2022-08-12T15:41:14.728Z,100783.67
2022-08-12T15:44:16.051Z,100782.85
2022-08-12T15:46:32.635Z,100785.61
2022-08-12T15:49:00.354Z,100799.27
2022-08-12T15:51:57.416Z,100798.09
2022-08-12T15:54:33.104Z,100797.16
2022-08-12T15:57:08.086Z,100818.02
2022-08-12T16:00:00.019Z,100832.98
2022-08-12T16:02:27.079Z,100846.23
2022-08-12T16:04:55.197Z,100857.78
2022-08-12T16:07:29.952Z,100857.23
2022-08-12T16:10:08.110Z,100860.11
2022-08-12T16:12:43.340Z,100848.98
2022-08-12T16:15:13.225Z,100836.21
2022-08-12T16:18:13.072Z,100831.42
2022-08-12T16:20:33.593Z,100827.45
2022-08-12T16:23:04.131Z,100821.01
2022-08-12T16:26:00.022Z,100805.54
2022-08-12T16:28:22.701Z,100786.58
2022-08-12T16:30:56.389Z,100778.55
2022-08-12T16:33:24.112Z,100782.30
2022-08-12T16:35:51.628Z,100784.06
2022-08-12T16:38:28.234Z,100781.61
2022-08-12T16:40:57.075Z,100773.80
2022-08-12T16:43:31.830Z,100773.58
2022-08-12T16:46:05.222Z,100768.24
2022-08-12T16:48:50.091Z,100762.79
2022-08-12T16:51:17.815Z,100754.94
2022-08-12T16:53:45.755Z,100756.98
2022-08-12T16:56:15.029Z,100760.41
2022-08-12T16:58:43.333Z,100767.88
2022-08-12T17:01:14.476Z,100768.92
2022-08-12T17:03:46.969Z,100767.91
2022-08-12T17:06:22.291Z,100766.05
2022-08-12T17:08:55.557Z,100776.30
2022-08-12T17:11:23.734Z,100780.76
2022-08-12T17:13:53.630Z,100773.91
2022-08-12T17:16:24.239Z,100771.77
2022-08-12T17:18:59.711Z,100766.64
2022-08-12T17:21:41.536Z,100765.42
2022-08-12T17:24:22.304Z,100758.52
2022-08-12T17:26:51.339Z,100764.36
2022-08-12T17:29:24.176Z,100762.13
2022-08-12T17:32:10.077Z,100760.69
2022-08-12T17:34:56.509Z,100761.66
2022-08-12T17:37:24.345Z,100760.63
2022-08-12T17:40:12.215Z,100768.21
2022-08-12T17:42:43.615Z,100766.08
2022-08-12T17:45:19.384Z,100764.27
2022-08-12T17:48:01.768Z,100761.54
2022-08-12T17:50:34.267Z,100760.85
2022-08-12T17:53:02.772Z,100757.48
2022-08-12T17:55:43.295Z,100752.20
2022-08-12T17:58:16.464Z,100752.36
2022-08-12T18:00:45.576Z,100748.63
2022-08-12T18:04:04.578Z,100745.00
2022-08-12T18:06:14.175Z,100741.44
2022-08-12T18:08:53.614Z,100738.78
2022-08-12T18:12:03.981Z,100732.13
2022-08-12T18:14:29.985Z,100725.61
2022-08-12T18:17:00.438Z,100728.17
2022-08-12T18:20:03.903Z,100726.23
2022-08-12T18:22:22.165Z,100724.23
2022-08-12T18:25:06.708Z,100718.04
2022-08-12T18:27:45.733Z,100713.34
2022-08-12T18:30:20.450Z,100719.19
2022-08-12T18:33:03.882Z,100713.35
2022-08-12T18:35:47.792Z,100712.61
2022-08-12T18:38:22.494Z,100708.19
2022-08-12T18:41:10.432Z,100701.52
2022-08-12T18:43:59.509Z,100704.80
2022-08-12T18:46:29.387Z,100700.73
2022-08-12T18:49:16.731Z,100703.94
2022-08-12T18:51:55.124Z,100697.11
2022-08-12T18:54:25.694Z,100699.23
2022-08-12T18:56:54.208Z,100700.39
2022-08-12T19:00:01.238Z,100699.14
2022-08-12T19:02:11.854Z,100696.83
2022-08-12T19:04:53.430Z,100690.66
2022-08-12T19:07:22.943Z,100690.96
2022-08-12T19:09:58.533Z,100692.39
2022-08-12T19:12:55.427Z,100692.73
2022-08-12T19:15:30.101Z,100693.92
2022-08-12T19:18:02.841Z,100692.92
2022-08-12T19:20:32.901Z,100694.17
2022-08-12T19:23:07.292Z,100692.09
2022-08-12T19:26:01.605Z,100694.09
2022-08-12T19:28:29.549Z,100700.33
2022-08-12T19:31:55.543Z,100699.36
2022-08-12T19:34:55.999Z,100691.66
2022-08-12T19:37:13.137Z,100684.00
2022-08-12T19:40:10.278Z,100684.38
2022-08-12T19:42:28.937Z,100697.15
2022-08-12T19:45:02.305Z,100680.79
2022-08-12T19:47:38.967Z,100688.02
2022-08-12T19:50:11.320Z,100686.70
2022-08-12T19:52:39.943Z,100687.67
2022-08-12T19:55:17.944Z,100686.27
2022-08-12T19:58:02.308Z,100686.23
2022-08-12T20:00:31.596Z,100686.57
2022-08-12T20:03:00.722Z,100687.67
2022-08-12T20:06:06.375Z,100690.58
2022-08-12T20:08:31.715Z,100689.41
2022-08-12T20:12:09.350Z,100689.09
2022-08-12T20:14:00.829Z,100691.94
2022-08-12T20:19:53.062Z,100692.13
2022-08-12T20:22:24.408Z,100692.89
2022-08-12T20:25:01.291Z,100687.31
2022-08-12T20:28:05.450Z,100690.06
2022-08-12T20:30:20.619Z,100691.30
2022-08-12T20:33:05.860Z,100689.23
2022-08-12T20:36:05.962Z,100693.23
2022-08-12T20:38:26.945Z,100696.13
2022-08-12T20:40:56.186Z,100699.58
2022-08-12T20:43:28.059Z,100693.86
2022-08-12T20:45:57.374Z,100696.51
2022-08-12T20:48:28.614Z,100695.38
2022-08-12T20:51:04.454Z,100690.80
2022-08-12T20:53:57.658Z,100694.40
2022-08-12T20:56:22.267Z,100692.02
2022-08-12T20:59:00.101Z,100692.16
2022-08-12T21:01:46.013Z,100689.31
2022-08-12T21:04:35.486Z,100686.98
2022-08-12T21:07:08.611Z,100693.79
2022-08-12T21:09:40.979Z,100694.58
2022-08-12T21:12:31.584Z,100695.18
2022-08-12T21:15:18.167Z,100695.09
2022-08-12T21:18:01.100Z,100695.46
2022-08-12T21:20:37.022Z,100696.20
2022-08-12T21:23:06.380Z,100694.70
2022-08-12T21:25:44.117Z,100698.67
2022-08-12T21:28:14.302Z,100694.46
2022-08-12T21:30:55.103Z,100689.17
2022-08-12T21:33:31.823Z,100689.73
2022-08-12T21:36:02.885Z,100687.95
2022-08-12T21:38:40.357Z,100686.33
2022-08-12T21:41:15.666Z,100682.89
2022-08-12T21:43:48.900Z,100685.75
2022-08-12T21:46:35.027Z,100684.45
2022-08-12T21:49:05.465Z,100686.77
2022-08-12T21:51:49.352Z,100684.98
2022-08-12T21:54:21.642Z,100687.94
2022-08-12T21:56:53.643Z,100693.48
2022-08-12T21:59:21.978Z,100691.05
2022-08-12T22:01:50.026Z,100692.52
2022-08-12T22:04:36.438Z,100689.26
2022-08-12T22:07:07.954Z,100686.15
2022-08-12T22:09:42.788Z,100685.60
2022-08-12T22:12:29.903Z,100684.98
2022-08-12T22:14:57.553Z,100688.02
2022-08-12T22:17:33.773Z,100682.48
2022-08-12T22:20:17.576Z,100678.11
2022-08-12T22:22:53.818Z,100670.73
2022-08-12T22:25:27.841Z,100666.79
2022-08-12T22:28:14.256Z,100666.83
2022-08-12T22:31:01.942Z,100668.73
2022-08-12T22:33:29.505Z,100665.80
2022-08-12T22:36:21.354Z,100672.42
2022-08-12T22:38:55.889Z,100671.29
2022-08-12T22:41:44.743Z,100663.57
2022-08-12T22:44:31.978Z,100656.60
2022-08-12T22:47:45.855Z,100650.80
2022-08-12T22:50:27.613Z,100645.73
2022-08-12T22:53:14.917Z,100642.25
2022-08-12T22:55:59.667Z,100634.31
2022-08-12T22:58:33.852Z,100626.24
2022-08-12T23:01:02.723Z,100614.69
2022-08-12T23:03:46.925Z,100614.38
2022-08-12T23:06:18.443Z,100617.63
2022-08-12T23:08:47.901Z,100613.65
2022-08-12T23:11:17.255Z,100614.37
2022-08-12T23:13:54.708Z,100606.83
2022-08-12T23:16:31.671Z,100600.17
2022-08-12T23:19:09.280Z,100602.27
2022-08-12T23:21:40.275Z,100606.71
2022-08-12T23:24:10.646Z,100606.11
2022-08-12T23:26:57.482Z,100602.66
2022-08-12T23:29:29.615Z,100605.26
2022-08-12T23:32:02.631Z,100598.79
2022-08-12T23:34:34.415Z,100596.59
2022-08-12T23:37:02.141Z,100591.11
2022-08-12T23:40:14.647Z,100585.27
2022-08-12T23:42:19.419Z,100584.50
2022-08-12T23:44:52.500Z,100587.45
2022-08-12T23:47:21.279Z,100577.38
2022-08-12T23:49:57.052Z,100578.52
2022-08-12T23:52:28.566Z,100578.92
2022-08-12T23:55:24.096Z,100579.59
2022-08-12T23:58:18.051Z,100577.13
